Strona główna
METAR-TAF:

METAR-TAF

Lotnisko :

Port lotniczy Beauvais-Tillé

Beauvais, Francja

Szerokość geograficzna: 49-28N, Długość geograficzna: 002-07E, wysokość: 109 m

Aktualna obserwacja pogody

Raport powstał 25 minut temu, godzina 01:00 UTC
Wiatr 3 kt od wschód
Temperatura 5°C
Wilgotność 75%
Ciśnienie 1019 hPa
Widzialność 10 km lub więcej
Brak chmur poniżej 1500 m i brak chmur cumulonimbus

METAR: LFOB 050100Z AUTO 10003KT CAVOK 05/01 Q1019

czas: 03:25 (01:25 UTC)

Prognoza

Raport powstał 22 godziny i 5 minut temu, godzina 03:20 UTC
Prognoza ważna od 03 godzina 03 UTC do 03 godzina 24 UTC
Wiatr 5 kt od zachodnio-północny zachód
Widzialność 10 km lub więcej
Przerywane chmury na wysokości 4500 ft
Prawdopodobieństwo 40%
od 03 godzina 04 UTC do 03 godzina 07 UTC
Przerywane chmury na wysokości 700 ft
Przerywane chmury na wysokości 4500 ft

TAF: LFOB 030320Z 0303/0324 30005KT 9999 BKN045 PROB40 0304/0307 BKN007 BKN045

Obserwacja i prognoza pogody dla ponad 4000 lotnisk (raport METAR i TAF).

Dostępne stacje oznaczono żółtymi i czerwonymi punktami na mapie.

Najedź kursorem aby zobaczyć nazwę stacji.

Kliknij aby zobaczyć obserwacje i prognozy pogody.

Aby zmienić mapę: kliknij na zielony przycisk z czarnym krzyżykiem, aby powiększyć; na zielony przycisk z myślnikiem, aby pomniejszyć; na zielone strzałki, aby przejść do map sąsiednich.


METAR-TAF: